^^
Grace C. Lehan Memorial Weather Station Historical Data
Daily Summary for January 14, 2021 Units:  English    Metric   Both
Daily Weekly Monthly Yearly
  High: Low: Average:
Temperature: 54.7 °F 38.2 °F 45.1 °F
Dew Point: 35.8 °F 18.6 °F 28.1 °F
Humidity: 75% 30% 53%
Wind Speed: 7.2mph 0mph 1.3mph
Wind Gust: 20mph - -
Wind- - WNW
Pressure: 30.62 in 30.16 in -
Precipitation: 0.00 in    
 
 
Tabular Data for January 14, 2021
Time Temperature Dew Point Pressure Wind Wind Speed Wind Gust Humidity Rainfall Rate (Hourly) solar
00:01 41.4 °F 26.9 °F 30.16 in SSW 1.2 mph 2 mph 56% 0.00 in 0 W/m2
00:30 41.6 °F 27.1 °F 30.16 in SSW 1 mph 3 mph 56% 0.00 in 0 W/m2
01:00 40.6 °F 26.6 °F 30.17 in Calm   1 mph 57% 0.00 in 0 W/m2
01:30 40.3 °F 26.3 °F 30.18 in Calm     57% 0.00 in 0 W/m2
02:30 41.1 °F 26.2 °F 30.21 in Calm   3 mph 55% 0.00 in 0 W/m2
03:00 39.3 °F 26.2 °F 30.21 in Calm   2 mph 59% 0.00 in 0 W/m2
03:30 39.3 °F 25.8 °F 30.22 in Calm   2 mph 58% 0.00 in 0 W/m2
04:04 39.9 °F 26.7 °F 30.24 in WNW 1.3 mph 3 mph 58.9% 0.00 in 0 W/m2
04:09 40.2 °F 27.4 °F 30.24 in WNW 1.3 mph 4 mph 59.8% 0.00 in 0 W/m2
04:14 40.7 °F 27.8 °F 30.25 in WNW 0.3 mph 4 mph 59.6% 0.00 in 0 W/m2
04:19 41.1 °F 28.3 °F 30.25 in WNW 0.8 mph 4 mph 60% 0.00 in 0 W/m2
04:24 41.3 °F 28.5 °F 30.25 in WNW 1.2 mph 4 mph 60% 0.00 in 0 W/m2
04:29 41.5 °F 29.1 °F 30.25 in WNW 2.2 mph 6 mph 61% 0.00 in 0 W/m2
04:34 41.7 °F 29.3 °F 30.25 in WNW 2.2 mph 6 mph 61% 0.00 in 0 W/m2
04:39 41.9 °F 29.5 °F 30.26 in WNW 1.9 mph 6 mph 61% 0.00 in 0 W/m2
04:44 42 °F 29.7 °F 30.26 in WNW 2.3 mph 7 mph 61.4% 0.00 in 0 W/m2
04:49 42 °F 29.9 °F 30.26 in WNW 2.5 mph 7 mph 62% 0.00 in 0 W/m2
04:54 42 °F 29.9 °F 30.26 in WNW 1.1 mph 7 mph 62% 0.00 in 0 W/m2
04:59 41.9 °F 29.9 °F 30.26 in WNW 1.1 mph 7 mph 62% 0.00 in 0 W/m2
05:04 41.8 °F 29.8 °F 30.27 in WNW 0.6 mph 7 mph 62% 0.00 in 0 W/m2
05:09 41.7 °F 30 °F 30.27 in WNW 1.5 mph 4 mph 62.8% 0.00 in 0 W/m2
05:14 41.6 °F 30.3 °F 30.27 in WNW 1.2 mph 4 mph 63.9% 0.00 in 0 W/m2
05:19 41.5 °F 30.4 °F 30.27 in WNW 0.4 mph 4 mph 64.4% 0.00 in 0 W/m2
05:24 41.5 °F 30.6 °F 30.28 in Calm   4 mph 65% 0.00 in 0 W/m2
05:29 41.4 °F 30.5 °F 30.28 in Calm   4 mph 65% 0.00 in 0 W/m2
05:34 41.3 °F 30.5 °F 30.28 in Calm   4 mph 65.2% 0.00 in 0 W/m2
05:39 41.1 °F 30.6 °F 30.28 in Calm     66% 0.00 in 0 W/m2
05:44 41 °F 30.5 °F 30.29 in Calm     66% 0.00 in 0 W/m2
05:49 40.8 °F 30.8 °F 30.29 in Calm     67.2% 0.00 in 0 W/m2
05:54 40.7 °F 31 °F 30.30 in Calm     68% 0.00 in 0 W/m2
05:59 40.6 °F 30.9 °F 30.30 in Calm     68% 0.00 in 0 W/m2
06:04 40.6 °F 30.8 °F 30.30 in Calm     68% 0.00 in 0 W/m2
06:09 40.5 °F 31.1 °F 30.30 in Calm     68.9% 0.00 in 0 W/m2
06:14 40.5 °F 31.1 °F 30.30 in Calm     69% 0.00 in 0 W/m2
06:19 40.5 °F 31.4 °F 30.31 in Calm     69.8% 0.00 in 0 W/m2
06:24 40.5 °F 31.5 °F 30.32 in WNW 0.3 mph 3 mph 70% 0.00 in 0 W/m2
06:29 40.5 °F 31.5 °F 30.32 in WNW 0.6 mph 3 mph 70% 0.00 in 0 W/m2
06:34 40.5 °F 31.7 °F 30.32 in WNW 0.8 mph 3 mph 70.7% 0.00 in 0 W/m2
06:39 40.5 °F 31.9 °F 30.33 in WNW 1.9 mph 4 mph 71.2% 0.00 in 0 W/m2
06:44 40.4 °F 31.9 °F 30.33 in WNW 2.1 mph 4 mph 71.5% 0.00 in 0 W/m2
06:49 40.3 °F 31.6 °F 30.33 in WNW 0.3 mph 4 mph 71% 0.00 in 0 W/m2
06:54 40.1 °F 31.7 °F 30.34 in Calm   4 mph 71.7% 0.00 in 0 W/m2
06:59 39.9 °F 31.7 °F 30.33 in WNW 0.6 mph 4 mph 72.3% 0.00 in 0 W/m2
07:04 39.8 °F 31.9 °F 30.34 in WNW 1.2 mph 4 mph 73.2% 0.00 in 0 W/m2
07:09 39.7 °F 32.1 °F 30.34 in WNW 1.7 mph 4 mph 74% 0.00 in 5 W/m2
07:14 39.8 °F 32.4 °F 30.34 in WNW 2.3 mph 7 mph 74.7% 0.00 in 7 W/m2
07:19 39.8 °F 32.5 °F 30.34 in NW 0.8 mph 7 mph 75% 0.00 in 11 W/m2
07:24 39.9 °F 32.6 °F 30.35 in Calm   7 mph 75% 0.00 in 12 W/m2
07:29 39.8 °F 32.6 °F 30.35 in Calm   7 mph 75% 0.00 in 18 W/m2
07:34 39.9 °F 32.6 °F 30.35 in NW 1.2 mph 7 mph 75% 0.00 in 18 W/m2
07:39 39.9 °F 32.7 °F 30.35 in NW 2 mph 4 mph 75% 0.00 in 40 W/m2
07:44 40.1 °F 32.8 °F 30.36 in NW 1.6 mph 4 mph 75% 0.00 in 51 W/m2
07:49 40.4 °F 33.1 °F 30.36 in NW 3.2 mph 5 mph 75% 0.00 in 62 W/m2
07:54 40.7 °F 33.1 °F 30.36 in NW 2.5 mph 6 mph 74.2% 0.00 in 69 W/m2
07:59 41 °F 33.7 °F 30.37 in NW 3 mph 9 mph 74.8% 0.00 in 86 W/m2
08:04 42 °F 34.3 °F 30.36 in NW 1 mph 1 mph 74% 0.00 in 90 W/m2
08:09 42.3 °F 34.4 °F 30.37 in NW 0.4 mph 3 mph 73.3% 0.00 in 125 W/m2
08:14 43 °F 34.7 °F 30.38 in NW 0.6 mph 5 mph 72.3% 0.00 in 142 W/m2
08:19 43.8 °F 35.1 °F 30.38 in NNW 1.8 mph 5 mph 71.3% 0.00 in 160 W/m2
08:24 44.5 °F 35.6 °F 30.38 in NNW 2.2 mph 11 mph 70.7% 0.00 in 181 W/m2
08:29 45.2 °F 35.6 °F 30.39 in NW 2.2 mph 11 mph 68.7% 0.00 in 158 W/m2
08:34 45.8 °F 35.5 °F 30.38 in NNW 2.6 mph 11 mph 67.2% 0.00 in 165 W/m2
08:39 46.1 °F 35.7 °F 30.39 in NNW 2.7 mph 9 mph 66.8% 0.00 in 176 W/m2
08:44 46.4 °F 35.7 °F 30.39 in NW 3.3 mph 9 mph 66.1% 0.00 in 158 W/m2
08:49 46.5 °F 35.6 °F 30.39 in NW 1.9 mph 9 mph 65.5% 0.00 in 185 W/m2
08:54 46.7 °F 35.7 °F 30.39 in NNW 4.2 mph 11 mph 65.4% 0.00 in 223 W/m2
08:59 47 °F 35.8 °F 30.39 in NW 5 mph 13 mph 64.9% 0.00 in 267 W/m2
09:04 47.4 °F 35.7 °F 30.40 in NNW 6.1 mph 14 mph 63.6% 0.00 in 234 W/m2
09:09 47.6 °F 35.8 °F 30.40 in NNW 2.9 mph 14 mph 63.3% 0.00 in 267 W/m2
09:14 47.9 °F 35.8 °F 30.40 in NW 5.9 mph 14 mph 62.8% 0.00 in 267 W/m2
09:19 47.9 °F 35.4 °F 30.41 in NNW 6.3 mph 18 mph 61.8% 0.00 in 269 W/m2
09:24 47.9 °F 35.5 °F 30.41 in NNW 5 mph 18 mph 62% 0.00 in 237 W/m2
09:29 48 °F 35 °F 30.41 in NNW 7.2 mph 20 mph 60.5% 0.00 in 225 W/m2
09:34 47.9 °F 34.6 °F 30.41 in NNW 5.9 mph 20 mph 59.7% 0.00 in 202 W/m2
09:39 48 °F 34.8 °F 30.42 in NNW 2.5 mph 17 mph 60% 0.00 in 221 W/m2
09:44 48.3 °F 34.7 °F 30.42 in NNW 6.6 mph 17 mph 59.2% 0.00 in 218 W/m2
09:49 48.5 °F 34.7 °F 30.42 in NNW 4.1 mph 17 mph 58.7% 0.00 in 213 W/m2
09:54 48.6 °F 34.6 °F 30.42 in NNW 3.3 mph 17 mph 58.1% 0.00 in 178 W/m2
09:59 48.6 °F 34.6 °F 30.43 in NNW 1.6 mph 17 mph 58.2% 0.00 in 211 W/m2
10:04 48.8 °F 34.7 °F 30.43 in NW 3.5 mph 17 mph 58% 0.00 in 221 W/m2
10:09 49 °F 34.7 °F 30.43 in NNW 4.9 mph 11 mph 57.5% 0.00 in 352 W/m2
10:14 49.6 °F 35.3 °F 30.43 in NNW 1.5 mph 11 mph 57.7% 0.00 in 399 W/m2
10:19 50.4 °F 35.6 °F 30.44 in NW 4.1 mph 16 mph 56.7% 0.00 in 461 W/m2
10:24 51 °F 35.3 °F 30.44 in NW 4.8 mph 16 mph 54.8% 0.00 in 429 W/m2
10:29 51 °F 34.9 °F 30.44 in NW 4.4 mph 16 mph 54% 0.00 in 431 W/m2
10:34 50.9 °F 34.7 °F 30.44 in NW 4.6 mph 16 mph 53.8% 0.00 in 510 W/m2
10:39 50.7 °F 34.5 °F 30.44 in NNW 5.9 mph 15 mph 53.5% 0.00 in 322 W/m2
10:44 50.6 °F 34.6 °F 30.44 in NW 4.7 mph 15 mph 54% 0.00 in 341 W/m2
10:49 50.4 °F 33.9 °F 30.44 in NW 4.2 mph 15 mph 53% 0.00 in 165 W/m2
10:54 50 °F 33.9 °F 30.44 in NNW 3.9 mph 15 mph 53.7% 0.00 in 156 W/m2
10:59 49.7 °F 33.7 °F 30.43 in NW 3.4 mph 15 mph 53.9% 0.00 in 151 W/m2
11:04 49.4 °F 33.5 °F 30.43 in NW 2.7 mph 15 mph 54% 0.00 in 121 W/m2
11:09 49.2 °F 33.6 °F 30.43 in NNW 0.9 mph 10 mph 54.6% 0.00 in 107 W/m2
11:14 49.2 °F 33.4 °F 30.43 in NW 2.3 mph 10 mph 54.3% 0.00 in 137 W/m2
11:19 49.3 °F 33.4 °F 30.43 in NNW 1.3 mph 10 mph 54.1% 0.00 in 160 W/m2
11:24 49.6 °F 33.9 °F 30.43 in NW 2.9 mph 12 mph 54.6% 0.00 in 183 W/m2
11:29 50 °F 34.5 °F 30.43 in WNW 2.3 mph 12 mph 55% 0.00 in 265 W/m2
11:34 50.4 °F 34.6 °F 30.43 in NW 1.8 mph 12 mph 54.5% 0.00 in 399 W/m2
11:39 50.8 °F 34.3 °F 30.44 in WNW 3.7 mph 14 mph 53% 0.00 in 330 W/m2
11:44 51 °F 33.5 °F 30.44 in NW 3.4 mph 14 mph 51% 0.00 in 255 W/m2
11:49 51 °F 33.3 °F 30.44 in NW 3.9 mph 14 mph 50.5% 0.00 in 188 W/m2
11:54 51 °F 33.1 °F 30.44 in NW 5 mph 14 mph 50.2% 0.00 in 130 W/m2
11:59 50.6 °F 32.6 °F 30.44 in NW 1.3 mph 14 mph 49.8% 0.00 in 118 W/m2
12:00 50.4 °F 32.5 °F 30.44 in WNW 1 mph 14 mph 50% 0.00 in 91 W/m2
12:09 50.1 °F 32.9 °F 30.44 in NNW 1.9 mph 6 mph 51.5% 0.00 in 434 W/m2
12:14 50.3 °F 33.3 °F 30.44 in NNW 2.4 mph 6 mph 51.9% 0.00 in 501 W/m2
12:19 50.8 °F 33.3 °F 30.44 in NNW 2.2 mph 7 mph 51% 0.00 in 327 W/m2
12:24 51.1 °F 33.8 °F 30.43 in NW 0.5 mph 7 mph 51.3% 0.00 in 70 W/m2
12:29 51.3 °F 33.5 °F 30.44 in NW 2.4 mph 11 mph 50.5% 0.00 in 158 W/m2
12:34 51.4 °F 33.5 °F 30.44 in NW 3.3 mph 11 mph 50.2% 0.00 in 422 W/m2
12:39 51.6 °F 33.2 °F 30.44 in NW 1.9 mph 11 mph 49.3% 0.00 in 471 W/m2
12:44 52.1 °F 33.6 °F 30.44 in NW 3.3 mph 11 mph 49.2% 0.00 in 466 W/m2
12:49 52.6 °F 33.4 °F 30.44 in NW 2.3 mph 11 mph 47.8% 0.00 in 244 W/m2
12:54 52.9 °F 33.6 °F 30.43 in NW 2 mph 11 mph 47.8% 0.00 in 167 W/m2
12:59 53.1 °F 33.2 °F 30.43 in NNW 2.1 mph 11 mph 46.7% 0.00 in 79 W/m2
13:04 53.2 °F 33.5 °F 30.43 in NNW 1 mph 11 mph 47% 0.00 in 334 W/m2
13:09 53.4 °F 33.2 °F 30.44 in NNW 1 mph 5 mph 46.1% 0.00 in 209 W/m2
13:14 53.6 °F 33.1 °F 30.44 in NNW 1 mph 6 mph 45.6% 0.00 in 179 W/m2
13:19 54 °F 32.4 °F 30.44 in NNW 1.8 mph 6 mph 43.7% 0.00 in 234 W/m2
13:24 54.4 °F 30.9 °F 30.44 in NNW 0.6 mph 6 mph 40.6% 0.00 in 341 W/m2
13:29 54.7 °F 31.3 °F 30.44 in NNW 1.7 mph 6 mph 40.8% 0.00 in 308 W/m2
13:34 54.6 °F 31 °F 30.43 in WNW 2 mph 6 mph 40.3% 0.00 in 207 W/m2
13:39 54.4 °F 31.2 °F 30.43 in NW 0.1 mph 6 mph 41% 0.00 in 209 W/m2
13:44 54.3 °F 30.8 °F 30.43 in WNW 2.3 mph 6 mph 40.5% 0.00 in 135 W/m2
13:49 53.9 °F 30.3 °F 30.44 in NW 0.6 mph 6 mph 40.3% 0.00 in 160 W/m2
13:54 53.6 °F 30 °F 30.44 in North 2.4 mph 12 mph 40.1% 0.00 in 160 W/m2
13:59 53.3 °F 29.8 °F 30.44 in NNW 0.6 mph 12 mph 40.2% 0.00 in 285 W/m2
14:04 53.5 °F 30.1 °F 30.44 in North 0.3 mph 12 mph 40.5% 0.00 in 276 W/m2
14:09 53.8 °F 29.5 °F 30.44 in NNE 0.4 mph 4 mph 39.2% 0.00 in 178 W/m2
14:14 54.2 °F 29.4 °F 30.44 in North 0.3 mph 4 mph 38.3% 0.00 in 158 W/m2
14:19 54.5 °F 29.1 °F 30.44 in NNW 1.3 mph 5 mph 37.6% 0.00 in 142 W/m2
14:22 54.5 °F 28.6 °F 30.44 in NNW 1.2 mph 5 mph 36.8% 0.00 in 178 W/m2
14:30 54.4 °F 27.3 °F 30.44 in NNW 1 mph 7 mph 35% 0.00 in 127 W/m2
15:00 53.1 °F 23.3 °F 30.46 in NW 2 mph 11 mph 31% 0.00 in 25 W/m2
15:30 51.5 °F 21.9 °F 30.48 in North 1 mph 9 mph 31% 0.00 in 19 W/m2
16:04 50.2 °F 20.8 °F 30.50 in North 0.1 mph 9 mph 31% 0.00 in 19 W/m2
16:09 50 °F 20.5 °F 30.50 in NNW 0.2 mph 2 mph 31% 0.00 in 7 W/m2
16:14 49.7 °F 20.3 °F 30.50 in NNW 0.3 mph 3 mph 31% 0.00 in 5 W/m2
16:19 49.5 °F 20.3 °F 30.50 in NNW 0.2 mph 3 mph 31.1% 0.00 in 0 W/m2
16:24 49.4 °F 20 °F 30.51 in NNW 0.1 mph 3 mph 31% 0.00 in 0 W/m2
16:29 49.2 °F 19.7 °F 30.51 in Calm   3 mph 30.9% 0.00 in 0 W/m2
16:34 49 °F 18.9 °F 30.51 in Calm   3 mph 30% 0.00 in 0 W/m2
16:39 48.8 °F 19.2 °F 30.51 in Calm     30.6% 0.00 in 0 W/m2
16:44 48.5 °F 19.3 °F 30.51 in Calm     31% 0.00 in 0 W/m2
16:49 48.3 °F 19.3 °F 30.51 in Calm     31.3% 0.00 in 0 W/m2
16:54 48 °F 18.9 °F 30.52 in Calm     31% 0.00 in 0 W/m2
16:59 47.8 °F 18.6 °F 30.52 in Calm     31% 0.00 in 0 W/m2
17:04 47.6 °F 18.7 °F 30.52 in Calm     31.3% 0.00 in 0 W/m2
17:09 47.3 °F 19.1 °F 30.53 in Calm     32.1% 0.00 in 0 W/m2
17:14 47.1 °F 19.5 °F 30.53 in Calm     33% 0.00 in 0 W/m2
17:19 46.8 °F 19.3 °F 30.53 in Calm     33% 0.00 in 0 W/m2
17:24 46.6 °F 19.5 °F 30.54 in Calm     33.7% 0.00 in 0 W/m2
17:29 46.3 °F 20.1 °F 30.54 in Calm     34.8% 0.00 in 0 W/m2
17:34 46 °F 20.6 °F 30.54 in Calm     36% 0.00 in 0 W/m2
17:39 45.7 °F 20.3 °F 30.54 in Calm     36% 0.00 in 0 W/m2
17:44 45.4 °F 20 °F 30.55 in Calm     36% 0.00 in 0 W/m2
17:49 45.1 °F 19.8 °F 30.55 in Calm     36.1% 0.00 in 0 W/m2
17:54 44.8 °F 20.5 °F 30.55 in NNW 0.3 mph 3 mph 37.6% 0.00 in 0 W/m2
17:59 44.5 °F 20.5 °F 30.55 in NNW 0.5 mph 5 mph 38% 0.00 in 0 W/m2
18:04 44.3 °F 20.3 °F 30.55 in Calm   5 mph 38% 0.00 in 0 W/m2
18:09 44.2 °F 20.2 °F 30.55 in Calm   2 mph 38% 0.00 in 0 W/m2
18:14 44 °F 20.1 °F 30.55 in Calm   2 mph 38.1% 0.00 in 0 W/m2
18:19 43.8 °F 20.5 °F 30.56 in Calm   2 mph 39% 0.00 in 0 W/m2
18:24 43.7 °F 20.9 °F 30.56 in Calm   2 mph 39.9% 0.00 in 0 W/m2
18:29 43.5 °F 20.8 °F 30.56 in Calm   2 mph 40% 0.00 in 0 W/m2
18:34 43.4 °F 20.7 °F 30.56 in Calm   2 mph 40% 0.00 in 0 W/m2
18:39 43.2 °F 21.1 °F 30.56 in Calm   1 mph 41% 0.00 in 0 W/m2
18:44 43 °F 21.4 °F 30.56 in Calm   1 mph 41.7% 0.00 in 0 W/m2
18:49 42.9 °F 21.4 °F 30.56 in Calm   1 mph 42% 0.00 in 0 W/m2
18:54 42.7 °F 21.2 °F 30.56 in Calm   1 mph 42% 0.00 in 0 W/m2
18:59 42.5 °F 21.1 °F 30.57 in Calm   1 mph 42% 0.00 in 0 W/m2
19:04 42.3 °F 21.2 °F 30.57 in Calm   1 mph 42.6% 0.00 in 0 W/m2
19:09 42.1 °F 21.3 °F 30.57 in Calm   1 mph 43.2% 0.00 in 0 W/m2
19:14 41.9 °F 21.8 °F 30.58 in Calm   1 mph 44.4% 0.00 in 0 W/m2
19:19 41.7 °F 22 °F 30.58 in Calm   1 mph 45.1% 0.00 in 0 W/m2
19:24 41.5 °F 21.7 °F 30.58 in Calm   1 mph 45% 0.00 in 0 W/m2
19:29 41.3 °F 21.7 °F 30.58 in Calm   1 mph 45.1% 0.00 in 0 W/m2
19:34 41.1 °F 21.7 °F 30.58 in Calm   1 mph 45.6% 0.00 in 0 W/m2
19:39 41 °F 21.3 °F 30.59 in Calm     45% 0.00 in 0 W/m2
19:44 40.9 °F 21.2 °F 30.59 in Calm     45% 0.00 in 0 W/m2
19:49 40.7 °F 21.5 °F 30.59 in Calm     45.9% 0.00 in 0 W/m2
19:54 40.6 °F 21.7 °F 30.59 in Calm     46.5% 0.00 in 0 W/m2
19:59 40.5 °F 21.9 °F 30.59 in Calm     47% 0.00 in 0 W/m2
20:04 40.3 °F 21.2 °F 30.59 in Calm     46% 0.00 in 0 W/m2
20:09 40.3 °F 21.3 °F 30.59 in Calm     46.4% 0.00 in 0 W/m2
20:14 40.1 °F 21.5 °F 30.59 in Calm     47% 0.00 in 0 W/m2
20:19 40 °F 21.4 °F 30.59 in Calm     47% 0.00 in 0 W/m2
20:24 39.9 °F 21.4 °F 30.59 in Calm     47.1% 0.00 in 0 W/m2
20:29 39.8 °F 22.2 °F 30.59 in Calm     49% 0.00 in 0 W/m2
20:34 39.5 °F 22.3 °F 30.60 in NNW 0.1 mph 2 mph 49.7% 0.00 in 0 W/m2
20:39 39.4 °F 22.3 °F 30.60 in Calm   2 mph 49.9% 0.00 in 0 W/m2
20:44 39.3 °F 21.8 °F 30.60 in Calm   2 mph 49.1% 0.00 in 0 W/m2
20:49 39.3 °F 21.8 °F 30.60 in Calm   2 mph 49% 0.00 in 0 W/m2
20:54 39.3 °F 22 °F 30.60 in Calm   2 mph 49.5% 0.00 in 0 W/m2
20:59 39.2 °F 21.7 °F 30.60 in NNW 0.1 mph 3 mph 49% 0.00 in 0 W/m2
21:04 39.2 °F 21.7 °F 30.60 in NNW 0.2 mph 3 mph 49% 0.00 in 0 W/m2
21:09 39.3 °F 21.7 °F 30.60 in Calm   3 mph 49% 0.00 in 0 W/m2
21:14 39.3 °F 21.9 °F 30.60 in NNW 0.1 mph 3 mph 49.2% 0.00 in 0 W/m2
21:19 39.2 °F 21.8 °F 30.60 in Calm   3 mph 49.3% 0.00 in 0 W/m2
21:24 39.1 °F 21.7 °F 30.60 in Calm   3 mph 49.2% 0.00 in 0 W/m2
21:29 39 °F 22.2 °F 30.61 in Calm   3 mph 50.5% 0.00 in 0 W/m2
21:34 38.9 °F 21.9 °F 30.61 in Calm   3 mph 50.2% 0.00 in 0 W/m2
21:39 38.8 °F 22.1 °F 30.61 in Calm     50.6% 0.00 in 0 W/m2
21:44 38.7 °F 22.6 °F 30.61 in Calm     52% 0.00 in 0 W/m2
21:49 38.6 °F 22 °F 30.62 in Calm     50.8% 0.00 in 0 W/m2
21:54 38.6 °F 21.6 °F 30.62 in Calm     50% 0.00 in 0 W/m2
21:59 38.6 °F 22.4 °F 30.62 in Calm     51.8% 0.00 in 0 W/m2
22:04 38.4 °F 22.4 °F 30.62 in Calm     52.2% 0.00 in 0 W/m2
22:08 38.2 °F 21.7 °F 30.62 in Calm     50.9% 0.00 in 0 W/m2
Hartford County Weather
Compliments of Weather Underground - 2 mb